Time;durP1;ratioP1;P1;durP2;ratioP2;P2;SDS_P1;SDS_P2;PMS_P1;PMS_P2;Temp;Humidity;BMP_temperature;BMP_pressure;BME280_temperature;BME280_humidity;BME280_pressure;Samples;Min_cycle;Max_cycle;Signal;HPM_P1;HPM_P2
2022/12/24 00:01:37;;;;;;;64.78;38.13;;;;;;;10.05;76.30;100747.47;4959362;29;20412;-79
2022/12/24 00:04:22;;;;;;;;;;;;;;;10.11;75.79;100757.06;4960969;28;20424;-79
2022/12/24 00:07:07;;;;;;;65.07;35.35;;;;;;;9.94;76.89;100758.91;4958667;29;20383;-78
2022/12/24 00:09:52;;;;;;;63.65;36.65;;;;;;;9.93;76.87;100760.00;4954777;28;20050;-79
2022/12/24 00:12:37;;;;;;;53.47;29.38;;;;;;;9.79;77.52;100760.06;4955806;29;20042;-77
2022/12/24 00:15:22;;;;;;;;;;;;;;;10.21;76.42;100756.03;4956007;28;20439;-79
2022/12/24 00:18:07;;;;;;;63.53;36.10;;;;;;;10.47;74.75;100746.09;4957693;29;19915;-77
2022/12/24 00:20:52;;;;;;;45.58;26.42;;;;;;;10.56;74.36;100748.88;4944333;29;20055;-77
2022/12/24 00:23:37;;;;;;;43.60;26.10;;;;;;;10.55;73.76;100747.25;4953661;29;20047;-77
2022/12/24 00:26:21;;;;;;;54.63;31.55;;;;;;;10.68;73.56;100730.03;4954207;29;20043;-79
2022/12/24 00:29:06;;;;;;;46.63;26.33;;;;;;;10.72;72.85;100731.00;4954844;28;20421;-77
2022/12/24 00:31:51;;;;;;;56.05;30.73;;;;;;;10.84;71.91;100744.78;4960828;28;20043;-78
2022/12/24 00:34:36;;;;;;;53.55;30.80;;;;;;;10.85;72.21;100729.28;4950462;28;20051;-77
2022/12/24 00:37:20;;;;;;;57.05;33.35;;;;;;;10.81;71.74;100722.88;4952736;28;20043;-79
2022/12/24 00:40:06;;;;;;;65.60;38.08;;;;;;;10.73;72.30;100719.00;4943996;29;20512;-79
2022/12/24 00:42:50;;;;;;;63.28;38.75;;;;;;;10.85;71.59;100697.44;4946050;28;20052;-78
2022/12/24 00:45:36;;;;;;;47.65;27.42;;;;;;;10.76;71.59;100680.31;4949439;29;20051;-77
2022/12/24 00:48:21;;;;;;;59.95;33.92;;;;;;;10.78;71.79;100707.97;4963738;28;20415;-78
2022/12/24 00:51:06;;;;;;;54.83;32.83;;;;;;;10.85;71.31;100719.19;4950700;29;20047;-77
2022/12/24 00:53:51;;;;;;;59.65;34.15;;;;;;;10.81;71.21;100704.63;4963922;28;20035;-79
2022/12/24 00:56:36;;;;;;;55.63;32.28;;;;;;;10.90;70.62;100710.09;4958684;28;20047;-78
2022/12/24 00:59:20;;;;;;;42.00;24.83;;;;;;;10.95;70.42;100728.97;4941667;29;20036;-78
2022/12/24 01:02:05;;;;;;;55.03;35.22;;;;;;;10.93;70.95;100731.22;4948179;28;20047;-79
2022/12/24 01:07:53;;;;;;;60.65;31.13;;;;;;;11.02;70.48;100743.72;4948509;29;19915;-78
2022/12/24 01:10:38;;;;;;;43.83;24.73;;;;;;;10.86;70.24;100731.69;4938055;28;20043;-78
2022/12/24 01:13:24;;;;;;;;;;;;;;;10.95;70.63;100737.94;4947688;29;20047;-79
2022/12/24 01:16:16;;;;;;;59.17;30.27;;;;;;;11.08;69.88;100712.50;4944238;29;19915;-78
2022/12/24 01:19:01;;;;;;;56.80;32.90;;;;;;;10.98;69.73;100704.66;4958891;28;20031;-78
2022/12/24 01:21:46;;;;;;;;;;;;;;;11.03;69.94;100731.72;4954187;28;20036;-78
2022/12/24 01:24:30;;;;;;;51.38;29.85;;;;;;;10.85;70.60;100760.00;4960487;28;20461;-78
2022/12/24 01:27:15;;;;;;;;;;;;;;;10.81;71.46;100744.63;4961815;28;20047;-78
2022/12/24 01:30:00;;;;;;;47.47;29.92;;;;;;;10.29;73.15;100711.81;4955401;29;19914;-78
2022/12/24 01:32:45;;;;;;;;;;;;;;;10.44;72.59;100725.00;4955768;28;20508;-79
2022/12/24 01:35:29;;;;;;;46.78;28.33;;;;;;;10.67;71.67;100739.28;4955206;28;19918;-78
2022/12/24 01:38:14;;;;;;;40.80;24.65;;;;;;;10.35;72.54;100750.53;4944815;28;20508;-78
2022/12/24 01:44:30;;;;;;;63.17;36.13;;;;;;;9.95;74.59;100785.75;4939037;29;20311;-80
2022/12/24 01:47:28;;;;;;;67.15;37.05;;;;;;;10.17;74.52;100796.63;4947391;29;20050;-78
2022/12/24 01:50:17;;;;;;;62.30;34.55;;;;;;;9.93;75.78;100798.84;4955143;29;20039;-78
2022/12/24 01:53:05;;;;;;;59.22;35.47;;;;;;;9.71;77.31;100804.25;4959487;28;20042;-78
2022/12/24 01:55:50;;;;;;;84.25;40.28;;;;;;;9.84;77.23;100793.34;4953178;28;20050;-77
2022/12/24 01:58:37;;;;;;;61.70;36.30;;;;;;;9.81;76.84;100804.00;4945129;28;20075;-78
2022/12/24 02:01:24;;;;;;;66.95;36.20;;;;;;;9.72;77.54;100811.28;4949748;29;20050;-79
2022/12/24 02:04:38;;;;;;;61.15;34.85;;;;;;;9.72;77.43;100795.00;4955841;28;20058;-78
2022/12/24 02:07:24;;;;;;;68.47;37.30;;;;;;;9.57;77.92;100798.06;4946862;28;20050;-78
2022/12/24 02:10:11;;;;;;;58.85;33.70;;;;;;;9.94;76.16;100796.94;4954704;28;20054;-78
2022/12/24 02:12:58;;;;;;;55.80;34.05;;;;;;;10.28;74.08;100795.25;4952141;28;20077;-78
2022/12/24 02:16:10;;;;;;;69.70;38.90;;;;;;;10.27;73.12;100790.13;4945267;28;20039;-78
2022/12/24 02:19:16;;;;;;;59.13;32.45;;;;;;;10.44;71.85;100789.44;4960056;28;20035;-78
2022/12/24 02:22:12;;;;;;;62.20;35.65;;;;;;;10.52;71.69;100780.50;4945084;29;20052;-77
2022/12/24 02:25:24;;;;;;;62.85;37.58;;;;;;;10.58;71.22;100784.69;4939235;29;20040;-78
2022/12/24 02:28:32;;;;;;;69.97;37.38;;;;;;;10.41;71.15;100768.31;4955074;28;20047;-78
2022/12/24 02:31:26;;;;;;;52.47;33.03;;;;;;;9.91;73.22;100792.09;4938690;29;20040;-79
2022/12/24 02:34:17;;;;;;;50.55;29.02;;;;;;;10.17;72.16;100777.59;4944549;28;20436;-79
2022/12/24 02:37:14;;;;;;;52.60;31.05;;;;;;;10.23;71.47;100762.78;4939919;28;20040;-79
2022/12/24 02:40:05;;;;;;;43.25;26.30;;;;;;;10.49;69.56;100746.59;4956130;28;20047;-78
2022/12/24 02:42:57;;;;;;;46.00;25.42;;;;;;;10.42;68.94;100720.97;4941870;29;20412;-78
2022/12/24 02:45:46;;;;;;;45.30;27.33;;;;;;;10.33;69.15;100712.78;4951365;28;20420;-79
2022/12/24 02:48:32;;;;;;;46.55;27.70;;;;;;;10.23;69.29;100711.16;4948994;29;20043;-78
2022/12/24 02:51:22;;;;;;;54.22;28.85;;;;;;;9.97;70.61;100710.19;4950008;28;20043;-78
2022/12/24 02:54:07;;;;;;;44.90;27.63;;;;;;;10.03;70.51;100722.53;4956332;28;20046;-78
2022/12/24 02:56:55;;;;;;;;;;;;;;;10.21;69.89;100726.16;4941746;28;20039;-81
2022/12/24 03:00:02;;;;;;;52.00;26.77;;;;;;;10.41;69.39;100732.97;4950931;28;20306;-78
2022/12/24 03:03:09;;;;;;;51.42;26.85;;;;;;;10.41;69.08;100752.00;4960139;28;20043;-78
2022/12/24 03:06:19;;;;;;;53.80;27.63;;;;;;;10.31;69.13;100720.44;4958426;28;20040;-81
2022/12/24 03:09:25;;;;;;;39.92;24.83;;;;;;;10.08;69.67;100689.78;4950642;28;20051;-80
2022/12/24 03:12:15;;;;;;;35.42;21.55;;;;;;;10.31;69.21;100736.75;4963228;28;20035;-80
2022/12/24 03:15:02;;;;;;;36.47;23.45;;;;;;;10.40;69.20;100753.13;4957477;29;20035;-79
2022/12/24 03:17:49;;;;;;;38.63;23.95;;;;;;;10.25;68.15;100744.25;4961955;28;20043;-78
2022/12/24 03:20:39;;;;;;;39.30;24.45;;;;;;;10.10;69.13;100739.19;4949959;29;20047;-78
2022/12/24 03:23:24;;;;;;;38.47;23.27;;;;;;;9.94;69.84;100740.69;4959406;28;20043;-79
2022/12/24 03:26:13;;;;;;;36.42;20.08;;;;;;;9.68;70.71;100750.56;4946967;28;20051;-79
2022/12/24 03:28:58;;;;;;;38.83;23.85;;;;;;;9.35;71.98;100763.53;4950455;28;20416;-78
2022/12/24 03:31:45;;;;;;;28.10;18.08;;;;;;;9.52;71.40;100762.88;4941383;29;20062;-78
2022/12/24 03:34:31;;;;;;;35.22;20.98;;;;;;;9.22;71.92;100754.31;4943457;29;20058;-80
2022/12/24 03:37:15;;;;;;;25.05;15.68;;;;;;;9.28;71.98;100739.56;4964679;28;20046;-77
2022/12/24 03:40:00;;;;;;;37.50;21.35;;;;;;;9.44;71.28;100751.66;4950817;29;20051;-79
2022/12/24 03:42:44;;;;;;;35.58;19.90;;;;;;;9.16;71.54;100788.09;4957449;29;20054;-79
2022/12/24 03:45:29;;;;;;;40.75;21.40;;;;;;;9.41;71.42;100782.13;4957001;28;20054;-78
2022/12/24 03:48:14;;;;;;;26.25;16.42;;;;;;;9.57;70.36;100754.63;4949058;29;20119;-78
2022/12/24 03:50:58;;;;;;;43.45;22.33;;;;;;;9.77;69.61;100763.09;4954163;29;20513;-78
2022/12/24 03:53:43;;;;;;;36.47;19.33;;;;;;;9.76;69.28;100758.75;4943887;28;20051;-80
2022/12/24 03:56:28;;;;;;;22.92;14.70;;;;;;;9.89;68.77;100762.53;4943546;29;20282;-79
2022/12/24 03:59:12;;;;;;;22.92;13.02;;;;;;;9.92;68.04;100777.41;4939916;29;20067;-79
2022/12/24 04:01:57;;;;;;;21.38;11.40;;;;;;;9.94;68.53;100780.63;4950520;28;20046;-80
2022/12/24 04:04:42;;;;;;;25.08;16.17;;;;;;;9.76;68.23;100791.34;4956535;29;20054;-79
2022/12/24 04:07:27;;;;;;;19.95;12.15;;;;;;;9.58;68.59;100800.47;4955081;29;20050;-78
2022/12/24 04:10:12;;;;;;;26.42;14.35;;;;;;;9.67;68.33;100782.34;4955012;28;20440;-77
2022/12/24 04:12:57;;;;;;;28.92;15.68;;;;;;;9.84;67.35;100771.63;4960122;28;20050;-79
2022/12/24 04:15:42;;;;;;;25.88;14.48;;;;;;;9.95;66.84;100771.38;4939954;28;20051;-78
2022/12/24 04:18:27;;;;;;;26.77;14.75;;;;;;;10.01;66.64;100768.19;4938675;29;20054;-78
2022/12/24 04:21:12;;;;;;;22.60;11.05;;;;;;;10.04;66.30;100764.88;4974854;23;20661;-82
2022/12/24 04:23:56;;;;;;;20.73;11.60;;;;;;;9.87;67.16;100767.47;4951960;28;20043;-83
2022/12/24 04:26:42;;;;;;;21.20;10.98;;;;;;;9.97;67.57;100780.00;4959422;28;20046;-83
2022/12/24 04:29:26;;;;;;;23.20;13.00;;;;;;;9.96;68.18;100779.19;4945775;28;20058;-83
2022/12/24 04:32:13;;;;;;;29.08;15.40;;;;;;;10.05;67.35;100769.22;4922609;29;20067;-83
2022/12/24 04:34:58;;;;;;;25.00;14.70;;;;;;;10.10;66.94;100792.72;4937043;29;20036;-83
2022/12/24 04:37:42;;;;;;;20.05;11.82;;;;;;;10.05;67.22;100799.09;4935435;28;20054;-83
2022/12/24 04:40:27;;;;;;;17.83;10.63;;;;;;;10.06;66.70;100784.38;4942806;29;20043;-83
2022/12/24 04:43:12;;;;;;;28.42;14.52;;;;;;;10.03;66.45;100778.75;4928984;29;20044;-83
2022/12/24 04:46:06;;;;;;;16.30;10.43;;;;;;;9.86;66.52;100787.59;4927776;29;20040;-83
2022/12/24 04:48:53;;;;;;;23.50;13.70;;;;;;;9.90;67.09;100780.44;4930478;29;20055;-82
2022/12/24 04:51:37;;;;;;;24.98;14.05;;;;;;;10.02;65.85;100761.66;4922694;29;20051;-82
2022/12/24 04:54:22;;;;;;;20.17;10.60;;;;;;;9.96;66.01;100757.47;4916389;29;20044;-82
2022/12/24 04:57:07;;;;;;;21.92;13.10;;;;;;;9.91;66.12;100765.72;4911781;29;20055;-81
2022/12/24 04:59:52;;;;;;;21.50;11.75;;;;;;;9.97;65.75;100748.22;4910616;29;20070;-82
2022/12/24 05:02:36;;;;;;;19.35;12.85;;;;;;;9.77;66.59;100733.22;4926362;29;20050;-83
2022/12/24 05:05:21;;;;;;;16.95;10.30;;;;;;;9.66;67.21;100739.19;4934490;29;20059;-84
2022/12/24 05:08:06;;;;;;;16.88;11.23;;;;;;;9.71;66.55;100736.34;4940341;28;20046;-84
2022/12/24 05:10:55;;;;;;;35.78;16.30;;;;;;;9.58;67.40;100748.09;4944581;29;20067;-84
2022/12/24 05:13:41;;;;;;;21.35;13.90;;;;;;;9.58;67.06;100746.19;4933728;29;20062;-83
2022/12/24 05:16:26;;;;;;;21.60;13.00;;;;;;;9.70;66.78;100748.34;4937065;29;20063;-84
2022/12/24 05:19:11;;;;;;;20.58;13.57;;;;;;;9.69;66.58;100763.03;4942234;29;20051;-85
2022/12/24 05:28:03;;;;;;;25.77;15.88;;;;;;;9.82;66.97;100773.03;4938146;28;20067;-84
2022/12/24 05:30:47;;;;;;;24.02;15.07;;;;;;;9.78;66.80;100766.63;4924345;29;20047;-85
2022/12/24 05:33:32;;;;;;;;;;;;;;;9.57;67.57;100779.84;4922466;29;20515;-84
2022/12/24 05:36:17;;;;;;;21.70;14.05;;;;;;;9.67;67.58;100765.25;4929653;29;19914;-88
2022/12/24 05:39:03;;;;;;;19.17;12.15;;;;;;;9.67;68.34;100759.81;4923687;29;20047;-87
2022/12/24 05:41:47;;;;;;;28.88;16.90;;;;;;;9.72;67.72;100752.34;4916892;29;20536;-81
2022/12/24 05:44:32;;;;;;;21.08;11.98;;;;;;;9.79;67.51;100725.59;4927178;29;20060;-81
2022/12/24 05:47:17;;;;;;;18.92;12.13;;;;;;;9.87;66.79;100735.69;4935491;29;20054;-81
2022/12/24 05:50:02;;;;;;;28.52;15.95;;;;;;;9.87;67.33;100732.97;4932124;29;20054;-82
2022/12/24 05:52:46;;;;;;;26.08;13.40;;;;;;;9.89;67.27;100746.25;4928270;29;20064;-82
2022/12/24 05:55:31;;;;;;;;;;;;;;;9.90;67.04;100756.00;4921497;29;20042;-82
2022/12/24 05:58:16;;;;;;;31.15;16.42;;;;;;;9.96;66.62;100768.31;4925327;29;19915;-83
2022/12/24 06:01:02;;;;;;;23.05;13.63;;;;;;;9.90;67.48;100758.72;4923504;29;20129;-82
2022/12/24 06:03:48;;;;;;;24.13;14.65;;;;;;;9.88;67.13;100752.78;4929241;29;20050;-82
2022/12/24 06:06:33;;;;;;;27.77;15.23;;;;;;;9.74;67.21;100755.56;4922400;29;20527;-82
2022/12/24 06:09:18;;;;;;;26.02;16.27;;;;;;;9.75;66.78;100753.66;4921947;29;20064;-83
2022/12/24 06:12:08;;;;;;;22.98;14.90;;;;;;;9.80;66.78;100764.41;4921664;29;20436;-83
2022/12/24 06:14:59;;;;;;;25.33;16.23;;;;;;;9.81;67.03;100774.94;4923587;29;20043;-83
2022/12/24 06:17:45;;;;;;;28.25;15.55;;;;;;;9.86;66.64;100788.41;4928707;29;20032;-83
2022/12/24 06:20:29;;;;;;;26.58;16.58;;;;;;;9.84;66.71;100804.22;4924336;29;20050;-81
2022/12/24 06:23:14;;;;;;;24.17;13.45;;;;;;;9.71;67.44;100806.97;4924918;29;20059;-81
2022/12/24 06:26:01;;;;;;;17.23;11.25;;;;;;;9.78;67.14;100810.88;4932360;29;20515;-81
2022/12/24 06:28:47;;;;;;;27.38;15.73;;;;;;;9.61;68.53;100826.19;4923290;29;20137;-81
2022/12/24 06:31:32;;;;;;;27.25;16.95;;;;;;;9.58;67.74;100822.19;4918729;29;20054;-82
2022/12/24 06:34:16;;;;;;;20.80;12.18;;;;;;;9.60;66.98;100802.91;4931625;29;20063;-82
2022/12/24 06:37:01;;;;;;;20.15;12.82;;;;;;;9.65;66.97;100794.63;4932225;29;20523;-83
2022/12/24 06:39:46;;;;;;;21.92;12.43;;;;;;;9.75;66.93;100795.16;4920900;29;20059;-83
2022/12/24 06:42:31;;;;;;;31.65;16.13;;;;;;;9.68;66.71;100778.53;4935609;29;20051;-82
2022/12/24 06:45:16;;;;;;;20.80;13.68;;;;;;;9.60;66.36;100767.59;4940315;29;20054;-82
2022/12/24 06:48:01;;;;;;;19.50;12.23;;;;;;;9.63;66.13;100775.13;4914027;29;20067;-81
2022/12/24 06:50:46;;;;;;;21.20;12.88;;;;;;;9.52;66.16;100800.88;4941616;28;20066;-82
2022/12/24 06:53:31;;;;;;;;;;;;;;;9.37;67.07;100794.69;4922109;29;20121;-82
2022/12/24 06:56:16;;;;;;;38.30;17.13;;;;;;;9.22;67.91;100794.22;4932258;29;19919;-80
2022/12/24 06:59:01;;;;;;;31.13;17.77;;;;;;;9.13;67.84;100783.28;4922307;29;20051;-81
2022/12/24 07:01:45;;;;;;;29.50;18.15;;;;;;;9.35;67.50;100788.75;4933477;29;20520;-80
2022/12/24 07:04:30;;;;;;;33.80;17.17;;;;;;;9.48;66.94;100794.47;4918863;29;20512;-80
2022/12/24 07:07:19;;;;;;;24.25;13.43;;;;;;;9.39;67.50;100810.69;4929679;29;20051;-81
2022/12/24 07:10:09;;;;;;;30.88;16.67;;;;;;;9.27;67.96;100811.19;4933425;29;20046;-81
2022/12/24 07:12:54;;;;;;;33.92;18.02;;;;;;;9.27;68.26;100805.78;4931197;29;20050;-80
2022/12/24 07:15:40;;;;;;;55.15;28.08;;;;;;;9.35;67.52;100796.91;4921841;29;20051;-81
2022/12/24 07:18:29;;;;;;;60.63;29.88;;;;;;;9.28;67.78;100784.88;4920044;29;20062;-81
2022/12/24 07:21:14;;;;;;;32.35;19.13;;;;;;;9.42;67.75;100786.44;4916507;29;20055;-82
2022/12/24 07:23:58;;;;;;;32.20;18.52;;;;;;;9.40;67.69;100788.66;4918174;29;20051;-81
2022/12/24 07:26:43;;;;;;;28.40;14.98;;;;;;;9.44;67.69;100778.81;4918019;29;20079;-81
2022/12/24 07:29:28;;;;;;;27.13;15.32;;;;;;;9.48;68.05;100772.75;4928658;29;20050;-80
2022/12/24 07:32:13;;;;;;;27.58;15.88;;;;;;;9.47;67.64;100777.38;4923700;29;20047;-80
2022/12/24 07:35:00;;;;;;;46.00;18.95;;;;;;;9.42;67.96;100794.59;4919985;29;20409;-82
2022/12/24 07:37:45;;;;;;;40.83;22.27;;;;;;;9.41;68.48;100803.03;4935379;29;20051;-82
2022/12/24 07:40:29;;;;;;;35.67;20.10;;;;;;;9.45;68.61;100806.72;4927245;29;20058;-81
2022/12/24 07:43:14;;;;;;;49.08;23.80;;;;;;;9.25;69.51;100820.72;4937905;29;20059;-82
2022/12/24 07:45:58;;;;;;;44.33;22.63;;;;;;;9.10;70.17;100826.47;4923611;29;20055;-82
2022/12/24 07:48:43;;;;;;;34.63;16.77;;;;;;;9.05;70.06;100819.25;4935398;29;20054;-82
2022/12/24 07:51:28;;;;;;;35.78;17.27;;;;;;;9.03;70.35;100843.19;4937549;29;20075;-82
2022/12/24 07:54:13;;;;;;;43.20;21.60;;;;;;;9.08;70.02;100839.56;4956962;28;20055;-81
2022/12/24 07:56:59;;;;;;;26.60;17.10;;;;;;;9.22;69.08;100838.44;4926475;29;20066;-81
2022/12/24 07:59:44;;;;;;;30.88;18.17;;;;;;;9.24;68.65;100849.81;4918385;29;20047;-82
2022/12/24 08:02:30;;;;;;;26.15;13.57;;;;;;;9.29;68.20;100849.69;4925394;29;20055;-81
2022/12/24 08:05:15;;;;;;;31.45;18.60;;;;;;;9.25;68.27;100842.44;4929893;29;20050;-82
2022/12/24 08:08:00;;;;;;;24.23;12.88;;;;;;;9.37;68.07;100832.69;4924255;29;20051;-82
2022/12/24 08:10:45;;;;;;;230.82;68.60;;;;;;;9.63;73.50;100843.00;4922042;29;20051;-79
2022/12/24 08:13:30;;;;;;;179.05;55.97;;;;;;;10.54;78.78;100849.78;4914384;29;20509;-80
2022/12/24 08:16:15;;;;;;;166.05;53.13;;;;;;;10.78;74.59;100865.72;4926158;29;20047;-79
2022/12/24 08:19:00;;;;;;;;;;;;;;;10.91;72.85;100870.28;4930395;29;20043;-81
2022/12/24 08:21:44;;;;;;;33.53;18.40;;;;;;;10.20;66.59;100861.25;4924765;29;19915;-80
2022/12/24 08:24:30;;;;;;;31.05;16.90;;;;;;;10.00;66.83;100875.28;4938829;29;20530;-80
2022/12/24 08:27:14;;;;;;;43.88;21.23;;;;;;;10.00;66.61;100877.19;4935516;29;20047;-80
2022/12/24 08:29:59;;;;;;;121.80;35.13;;;;;;;10.84;73.96;100908.00;4927143;29;20044;-80
2022/12/24 08:32:44;;;;;;;121.57;38.70;;;;;;;11.85;75.47;100912.53;4936487;29;20039;-80
2022/12/24 08:35:29;;;;;;;125.72;34.47;;;;;;;12.24;72.60;100925.25;4915039;29;20040;-80
2022/12/24 08:38:14;;;;;;;;;;;;;;;12.33;71.83;100928.78;4933479;29;20035;-80
2022/12/24 08:40:58;;;;;;;39.42;20.48;;;;;;;12.42;68.20;100927.66;4924652;29;19915;-80
2022/12/24 08:43:43;;;;;;;50.13;25.25;;;;;;;11.86;65.35;100911.44;4919450;29;20500;-80
2022/12/24 08:46:28;;;;;;;;;;;;;;;11.30;62.05;100901.34;4918725;29;20044;-80
2022/12/24 08:49:12;;;;;;;70.43;39.50;;;;;;;10.80;63.07;100907.03;4924817;29;19914;-80
2022/12/24 08:51:57;;;;;;;36.72;23.20;;;;;;;10.50;63.90;100913.25;4936310;29;20039;-80
2022/12/24 08:54:42;;;;;;;34.05;18.20;;;;;;;10.64;66.58;100930.28;4920261;29;20040;-80
2022/12/24 08:57:27;;;;;;;30.17;17.48;;;;;;;10.82;67.22;100934.72;4938974;29;20454;-80
2022/12/24 09:00:13;;;;;;;31.80;15.95;;;;;;;10.73;65.03;100926.50;4944228;29;20051;-80
2022/12/24 09:02:58;;;;;;;29.15;17.67;;;;;;;10.59;65.02;100914.09;4941053;29;20059;-80
2022/12/24 09:05:43;;;;;;;26.77;14.63;;;;;;;10.28;65.20;100914.84;4936290;29;20039;-80
2022/12/24 09:08:27;;;;;;;;;;;;;;;10.37;65.91;100935.84;4936847;29;20048;-80
2022/12/24 09:11:15;;;;;;;36.47;19.40;;;;;;;10.34;65.96;100939.19;4938416;29;19914;-80
2022/12/24 09:14:00;;;;;;;40.83;18.63;;;;;;;10.34;66.02;100947.34;4933166;28;20035;-80
2022/12/24 09:16:44;;;;;;;;;;;;;;;10.38;65.49;100951.06;4916294;29;20035;-81
2022/12/24 09:19:29;;;;;;;47.40;21.55;;;;;;;10.33;65.69;100953.88;4940635;29;19919;-80
2022/12/24 09:22:14;;;;;;;30.88;16.92;;;;;;;10.10;65.93;100961.19;4926028;28;20043;-80
2022/12/24 09:24:59;;;;;;;155.82;44.97;;;;;;;10.69;73.28;100960.09;4934969;28;20056;-81
2022/12/24 09:27:43;;;;;;;137.48;44.25;;;;;;;11.63;72.61;100951.56;4931898;29;20413;-87
2022/12/24 09:30:28;;;;;;;;;;;;;;;12.18;68.47;100953.78;4922160;29;20051;-80
2022/12/24 09:33:12;;;;;;;82.50;28.33;;;;;;;12.42;67.59;100965.81;4920543;29;19915;-81
2022/12/24 09:35:57;;;;;;;31.35;18.38;;;;;;;12.18;62.82;100967.41;4931732;29;20040;-80
2022/12/24 09:38:42;;;;;;;83.53;25.90;;;;;;;11.82;66.10;100962.22;4929922;29;20044;-80
2022/12/24 09:41:36;;;;;;;;;;;;;;;11.67;61.67;100977.06;4927822;29;20044;-79
2022/12/24 09:44:46;;;;;;;36.38;20.60;;;;;;;11.30;62.27;100991.97;4917484;29;19915;-79
2022/12/24 09:47:39;;;;;;;37.40;22.02;;;;;;;11.00;63.15;100988.13;4924257;29;20037;-78
2022/12/24 09:50:53;;;;;;;33.65;20.80;;;;;;;10.79;64.46;100948.94;4924888;29;20044;-80
2022/12/24 09:53:53;;;;;;;37.92;20.25;;;;;;;10.59;64.88;100933.94;4932910;29;20048;-79
2022/12/24 09:56:42;;;;;;;37.28;20.25;;;;;;;10.53;65.14;100948.78;4924828;29;20039;-78
2022/12/24 09:59:39;;;;;;;34.00;20.63;;;;;;;10.47;65.35;100957.34;4919645;29;20066;-79
2022/12/24 10:02:24;;;;;;;;;;;;;;;10.41;65.74;100937.66;4931248;29;20047;-84
2022/12/24 10:05:14;;;;;;;48.13;23.60;;;;;;;10.99;67.51;100928.56;4933556;28;19919;-83
2022/12/24 10:08:17;;;;;;;139.95;42.83;;;;;;;11.01;67.64;100937.25;4934559;29;20035;-79
2022/12/24 10:11:39;;;;;;;193.38;56.10;;;;;;;11.61;69.95;100921.13;4929503;29;20039;-79
2022/12/24 10:14:55;;;;;;;91.07;36.58;;;;;;;11.84;67.20;100919.09;4927114;29;20505;-79
2022/12/24 10:17:46;;;;;;;;;;;;;;;11.63;65.89;100921.59;4934591;29;20043;-79
2022/12/24 10:21:07;;;;;;;43.85;26.38;;;;;;;11.25;67.14;100907.72;4933439;29;19914;-79
2022/12/24 10:24:06;;;;;;;70.97;32.00;;;;;;;11.84;67.28;100925.38;4923802;29;20039;-78
2022/12/24 10:27:15;;;;;;;48.83;26.27;;;;;;;11.43;68.12;100938.53;4935305;29;20047;-78
2022/12/24 10:30:16;;;;;;;53.20;29.20;;;;;;;11.68;67.88;100959.63;4923865;29;20044;-78
2022/12/24 10:33:01;;;;;;;69.22;31.55;;;;;;;11.86;68.74;100977.63;4935007;29;20040;-80
2022/12/24 10:35:51;;;;;;;57.42;32.30;;;;;;;11.66;67.73;100975.47;4926456;29;20040;-79
2022/12/24 10:38:36;;;;;;;70.45;38.38;;;;;;;11.49;68.14;100986.28;4989419;23;20421;-80
2022/12/24 10:41:23;;;;;;;;;;;;;;;11.25;69.57;100994.03;4955983;28;20048;-80
2022/12/24 10:44:16;;;;;;;73.20;38.42;;;;;;;11.21;70.18;100985.69;4957745;28;19915;-80
2022/12/24 10:47:03;;;;;;;80.55;44.30;;;;;;;11.21;70.79;100961.19;4957591;28;20047;-80
2022/12/24 10:49:59;;;;;;;78.55;42.03;;;;;;;11.07;71.45;100977.59;4948789;28;20035;-80
2022/12/24 10:52:46;;;;;;;94.72;44.35;;;;;;;11.13;70.72;100981.00;4948054;29;20044;-81
2022/12/24 10:55:30;;;;;;;80.88;43.75;;;;;;;11.31;70.74;100974.53;4954750;29;20491;-80
2022/12/24 10:58:18;;;;;;;93.22;45.80;;;;;;;11.47;71.48;100975.72;4949066;29;20051;-81
2022/12/24 11:01:03;;;;;;;86.00;44.90;;;;;;;11.26;71.07;100990.19;4973809;28;20043;-81
2022/12/24 11:04:00;;;;;;;102.07;49.10;;;;;;;11.12;71.42;100982.91;4964685;28;20048;-81
2022/12/24 11:06:59;;;;;;;99.22;47.30;;;;;;;10.99;72.37;100991.16;4949503;29;20040;-81
2022/12/24 11:09:55;;;;;;;102.65;47.92;;;;;;;10.75;74.81;100996.13;4966054;28;20039;-81
2022/12/24 11:12:47;;;;;;;123.35;54.33;;;;;;;11.84;71.14;100996.19;4944063;28;20035;-81
2022/12/24 11:15:33;;;;;;;115.70;53.05;;;;;;;11.67;71.18;100985.25;4954446;29;20479;-80
2022/12/24 11:18:18;;;;;;;96.68;50.83;;;;;;;11.23;71.89;100986.16;4955953;28;20040;-80
2022/12/24 11:21:04;;;;;;;158.07;52.65;;;;;;;11.41;73.77;100992.50;4971092;28;20035;-81
2022/12/24 11:23:56;;;;;;;90.30;47.75;;;;;;;11.41;71.82;100989.78;4957787;29;20487;-81
2022/12/24 11:26:42;;;;;;;104.72;48.10;;;;;;;11.12;72.45;100985.63;4958340;29;20489;-81
2022/12/24 11:29:27;;;;;;;85.00;44.92;;;;;;;11.17;71.68;100978.47;4955298;28;20452;-80
2022/12/24 11:32:20;;;;;;;72.95;36.95;;;;;;;11.04;72.01;100988.31;4956169;29;20047;-81
2022/12/24 11:35:07;;;;;;;95.30;44.78;;;;;;;10.95;72.38;100982.81;4967355;28;20039;-81
2022/12/24 11:38:04;;;;;;;88.85;45.33;;;;;;;10.94;72.20;100974.97;4951916;28;20047;-81
2022/12/24 11:40:57;;;;;;;82.70;45.17;;;;;;;10.96;72.40;100973.56;4950032;29;20036;-81
2022/12/24 11:43:45;;;;;;;83.40;45.00;;;;;;;11.04;71.87;100963.81;4976192;28;20510;-81
2022/12/24 11:46:40;;;;;;;93.70;45.08;;;;;;;10.93;72.16;100959.75;4959301;28;20412;-80
2022/12/24 11:49:31;;;;;;;67.97;38.45;;;;;;;10.92;71.95;100960.88;4974235;28;20043;-81
2022/12/24 11:52:21;;;;;;;82.63;43.13;;;;;;;10.94;71.47;100966.78;4961292;28;20496;-80
2022/12/24 11:55:26;;;;;;;94.38;42.92;;;;;;;10.96;71.91;100954.50;4962087;28;20055;-81
2022/12/24 11:58:16;;;;;;;84.63;41.08;;;;;;;10.89;72.57;100947.88;4953255;29;20047;-82
2022/12/24 12:01:24;;;;;;;79.75;40.88;;;;;;;10.85;72.72;100953.16;4958079;28;20039;-82
2022/12/24 12:04:20;;;;;;;81.60;41.75;;;;;;;10.91;71.60;100949.19;4954128;29;20250;-81
2022/12/24 12:07:13;;;;;;;84.70;42.38;;;;;;;10.77;72.08;100937.56;4949056;29;20055;-81
2022/12/24 12:10:01;;;;;;;76.80;40.83;;;;;;;10.85;71.99;100942.28;4959661;28;20043;-81
2022/12/24 12:12:55;;;;;;;72.38;39.42;;;;;;;10.97;71.76;100960.75;4958461;28;20043;-80
2022/12/24 12:15:48;;;;;;;75.93;40.50;;;;;;;10.91;71.81;100970.97;4954429;28;20028;-80
2022/12/24 12:18:45;;;;;;;71.43;41.42;;;;;;;10.94;71.76;100962.16;4960655;28;20047;-80
2022/12/24 12:21:38;;;;;;;73.95;39.65;;;;;;;10.91;71.99;100970.97;4950380;29;20036;-80
2022/12/24 12:24:30;;;;;;;84.07;40.58;;;;;;;10.90;71.72;100965.81;4961288;28;20044;-80
2022/12/24 12:27:26;;;;;;;83.15;41.15;;;;;;;10.81;72.69;100965.78;4971272;28;20051;-81
2022/12/24 12:30:17;;;;;;;84.78;41.30;;;;;;;10.82;73.15;100969.31;4969640;28;20043;-80
2022/12/24 12:33:14;;;;;;;99.40;46.13;;;;;;;10.80;73.51;100971.53;4957242;28;20039;-80
2022/12/24 12:36:02;;;;;;;85.35;42.45;;;;;;;10.99;73.42;100967.47;4955394;28;20035;-80
2022/12/24 12:38:49;;;;;;;87.65;41.60;;;;;;;10.93;73.32;100968.72;4950754;28;20038;-80
2022/12/24 12:41:33;;;;;;;83.25;43.33;;;;;;;10.94;73.11;100983.94;4962504;28;20051;-80
2022/12/24 12:44:37;;;;;;;86.78;43.60;;;;;;;10.96;73.12;100992.59;4951193;29;20039;-81
2022/12/24 12:47:43;;;;;;;92.38;42.30;;;;;;;10.94;73.50;100999.44;4967277;28;20047;-81
2022/12/24 12:50:38;;;;;;;70.47;39.45;;;;;;;11.08;73.33;101000.97;4969388;28;20043;-80
2022/12/24 12:53:22;;;;;;;88.43;44.90;;;;;;;11.01;73.27;100987.03;4955222;29;20047;-80
2022/12/24 12:56:30;;;;;;;83.63;37.78;;;;;;;11.00;73.76;100999.03;4955740;29;20051;-80
2022/12/24 12:59:23;;;;;;;98.75;47.47;;;;;;;10.98;74.02;101006.69;4955446;29;20043;-80
2022/12/24 13:02:36;;;;;;;103.82;48.60;;;;;;;11.07;74.11;101012.19;4956626;28;20044;-81
2022/12/24 13:05:38;;;;;;;114.18;52.33;;;;;;;10.91;75.43;101010.97;4953306;28;20052;-81
2022/12/24 13:08:26;;;;;;;102.90;52.97;;;;;;;10.87;75.02;101018.16;4958033;29;20043;-80